Todd, Minnesota
Current Conditions -  °F | °C
As of 8:53 AM on Wednesday 22 Oct 2014 (Local Time) from KPKD Reporting Station
Few Clouds Few Clouds  
Wind Chill: 37°   Ceiling: Unl
Heat Index: 45°   Visibility: 10mi
Dew Point: 38°   Wind: 20mph
Humidity: 76%   Direction: 150°SSE
Pressure: 30.01"   Gusts: 28mph
Location:  46.9966°N, 95.0029°W
Report Text: KPKD 221353Z AUTO 15017G24KT 10SM FEW041 07/03 A3001 RMK AO2 SLP171 T00720033 TSNO
Loading
Personal Weather Stations






























Interactive Weather Map
Tropical Storm Tracking
New forecast layout! Learn more

10-Day Weather Forecast

Advertisements
Track Severe Weather on mobile